Sample Charts Sidebar
> Live data! Your data is on the web site for you to access within minutes
 
> Detailed data is easily downloaded as data file, which can be opened with Excel
 
> Charts can be customised if necessary
  Chart 1
 

(A maximum of 50 rows are displayed here. Use "Export Data" to see all rows in the date range.)
Date Collected Temperature
(Celcius)
Wind-chill
(Celcius)
Wind Speed
(km/hr)
Gust
(km/hr)
Wind Direction
(degrees)
2019-07-22 19:00 17.7 17.7 2 4 69
2019-07-22 18:00 18.3 18.3 2 5 50
2019-07-22 17:00 18.9 18.9 2 5 25
2019-07-22 16:00 19.4 19.4 2 5 5
2019-07-22 15:00 19.8 19.7 2 6 21
2019-07-22 14:00 19.6 19.1 3 7 36
2019-07-22 13:00 17.9 16.6 4 9 45
2019-07-22 12:00 16.1 14.4 5 10 46
2019-07-22 11:00 14.0 12.7 4 10 46
2019-07-22 10:00 12.5 10.8 5 9 51
2019-07-22 09:00 10.5 6.7 6 11 42
2019-07-22 08:00 9.0 5.7 6 13 47
2019-07-22 07:00 8.6 7.0 4 9 54
2019-07-22 06:00 8.5 7.2 4 8 57
2019-07-22 05:00 8.8 7.7 4 8 51
2019-07-22 04:00 9.4 7.5 4 10 42
2019-07-22 03:00 9.2 8.8 3 6 41
2019-07-22 02:00 9.7 9.7 2 5 47
2019-07-22 01:00 10.9 10.9 2 5 56
2019-07-22 00:00 11.8 11.8 2 5 56
2019-07-21 23:00 12.1 12.1 2 5 68
2019-07-21 22:00 12.2 12.1 2 5 69
2019-07-21 21:00 11.8 11.9 2 5 51
2019-07-21 20:00 11.7 11.7 2 4 37
2019-07-21 19:00 12.7 12.8 0 1 0
2019-07-21 18:00 14.2 14.3 0 1 293
2019-07-21 17:00 16.1 16.2 1 1 270
2019-07-21 16:00 16.9 17.1 2 5 243
2019-07-21 15:00 17.3 16.9 3 7 248
2019-07-21 14:00 17.5 17.4 3 5 238
2019-07-21 13:00 17.3 16.9 3 7 252
2019-07-21 12:00 18.2 17.8 2 5 208
2019-07-21 11:00 15.5 15.5 2 5 19
2019-07-21 10:00 13.2 12.2 4 6 52
2019-07-21 09:00 8.4 7.7 3 6 46
2019-07-21 08:00 7.3 6.8 3 6 60
2019-07-21 07:00 7.3 6.9 2 5 55
2019-07-21 06:00 7.0 6.6 3 6 51
2019-07-21 05:00 7.2 6.1 4 8 42
2019-07-21 04:00 7.4 7.0 3 6 56
2019-07-21 03:00 7.7 6.5 4 7 63
2019-07-21 02:00 7.8 7.7 2 5 69
2019-07-21 01:00 7.6 7.5 2 6 71
2019-07-21 00:00 7.2 7.3 1 2 28
2019-07-20 23:00 8.3 8.3 1 3 44
2019-07-20 22:00 9.9 10.0 1 2 1
2019-07-20 21:00 11.9 12.0 0 2 53
2019-07-20 20:00 12.9 12.8 2 5 117
2019-07-20 19:00 13.1 13.2 1 2 103
2019-07-20 18:00 14.5 14.5 1 3 109